Aviation Digital Data Service (ADDS)

Output produced by METARs form (0032 UTC 28 March 2015)
found at http://aviationweather.gov/adds/metars/
 
KAND 272320Z 2800/2824 31005KT P6SM BKN060 
     FM280500 30004KT P6SM SCT060 
     FM281900 28008G16KT P6SM FEW210